GEHYZ ZZZZ-EGLW

Flight info

Callsign GEHYZ
Flight time N/A
Altitude 2500
Route VFR ISLEOFDOGS H4 EGLW
Aircraft AS50/L-SDGRY/S

Departure

Time N/A
Airport ZZZZ

Arrival

Time 2026-04-25 20:46
Airport London Heliport (EGLW)
Time Latitude Longitude Altitude Speed Heading
2026-04-25 19:40 51.97207 1.15476 57 ft 0 kts 181°
2026-04-25 19:45 51.97207 1.15479 52 ft 0 kts 239°
2026-04-25 19:45 51.97206 1.15477 63 ft 2 kts 248°
2026-04-25 19:45 51.97137 1.15355 274 ft 40 kts 240°
2026-04-25 19:45 51.96930 1.14796 505 ft 76 kts 240°
2026-04-25 19:46 51.96638 1.13940 653 ft 98 kts 238°
2026-04-25 19:46 51.96263 1.12948 866 ft 105 kts 234°
2026-04-25 19:46 51.95911 1.11955 1277 ft 102 kts 237°
2026-04-25 19:46 51.95574 1.10937 1621 ft 103 kts 239°
2026-04-25 19:47 51.95237 1.09908 1962 ft 103 kts 240°
2026-04-25 19:47 51.94895 1.08880 2293 ft 104 kts 241°
2026-04-25 19:47 51.94541 1.07846 2578 ft 109 kts 240°
2026-04-25 19:47 51.94124 1.06656 2545 ft 132 kts 240°
2026-04-25 19:48 51.93655 1.05312 2523 ft 141 kts 240°
2026-04-25 19:48 51.93165 1.03909 2515 ft 145 kts 240°
2026-04-25 19:48 51.92663 1.02484 2514 ft 147 kts 240°
2026-04-25 19:48 51.92152 1.01044 2515 ft 148 kts 240°
2026-04-25 19:49 51.91637 0.99594 2515 ft 149 kts 240°
2026-04-25 19:49 51.91299 0.98630 2515 ft 148 kts 240°
2026-04-25 19:49 51.90645 0.96662 2511 ft 149 kts 242°
2026-04-25 19:49 51.90163 0.95181 2510 ft 149 kts 243°
2026-04-25 19:50 51.89201 0.92225 2508 ft 148 kts 242°
2026-04-25 19:50 51.88717 0.90748 2507 ft 149 kts 242°
2026-04-25 19:50 51.88229 0.89268 2506 ft 149 kts 242°
2026-04-25 19:51 51.87737 0.87782 2505 ft 150 kts 242°
2026-04-25 19:51 51.87243 0.86302 2505 ft 149 kts 242°
2026-04-25 19:51 51.86750 0.84824 2504 ft 149 kts 242°
2026-04-25 19:51 51.86264 0.83368 2504 ft 149 kts 242°
2026-04-25 19:52 51.85770 0.81892 2506 ft 150 kts 242°
2026-04-25 19:52 51.85275 0.80410 2504 ft 150 kts 242°
2026-04-25 19:52 51.84778 0.78924 2503 ft 150 kts 242°
2026-04-25 19:52 51.84279 0.77443 2495 ft 150 kts 241°
2026-04-25 19:53 51.83774 0.75967 2495 ft 150 kts 240°
2026-04-25 19:53 51.83262 0.74503 2495 ft 149 kts 240°
2026-04-25 19:53 51.82749 0.73044 2494 ft 149 kts 240°
2026-04-25 19:53 51.82235 0.71588 2493 ft 149 kts 240°
2026-04-25 19:54 51.81721 0.70133 2494 ft 149 kts 240°
2026-04-25 19:54 51.81204 0.68674 2494 ft 150 kts 240°
2026-04-25 19:54 51.80685 0.67209 2494 ft 150 kts 240°
2026-04-25 19:54 51.80331 0.66221 2494 ft 150 kts 240°
2026-04-25 19:55 51.79633 0.64294 2491 ft 150 kts 239°
2026-04-25 19:55 51.79097 0.62854 2491 ft 149 kts 239°
2026-04-25 19:55 51.78557 0.61425 2493 ft 149 kts 239°
2026-04-25 19:55 51.78023 0.60015 2492 ft 149 kts 239°
2026-04-25 19:56 51.77483 0.58593 2492 ft 149 kts 239°
2026-04-25 19:56 51.76941 0.57167 2492 ft 149 kts 239°
2026-04-25 19:56 51.76398 0.55738 2491 ft 150 kts 239°
2026-04-25 19:56 51.75852 0.54308 2491 ft 150 kts 239°
2026-04-25 19:57 51.75306 0.52879 2492 ft 149 kts 239°
2026-04-25 19:57 51.74762 0.51454 2492 ft 149 kts 239°
2026-04-25 19:57 51.74217 0.50031 2492 ft 149 kts 239°
2026-04-25 19:57 51.73670 0.48607 2491 ft 149 kts 239°
2026-04-25 19:58 51.73214 0.47099 2492 ft 150 kts 251°
2026-04-25 19:58 51.72963 0.45465 2491 ft 150 kts 259°
2026-04-25 19:58 51.72797 0.43804 2490 ft 150 kts 261°
2026-04-25 19:58 51.72647 0.42141 2491 ft 150 kts 262°
2026-04-25 19:59 51.72493 0.40477 2492 ft 150 kts 261°
2026-04-25 19:59 51.72330 0.38814 2491 ft 150 kts 261°
2026-04-25 19:59 51.72163 0.37159 2486 ft 149 kts 261°
2026-04-25 19:59 51.71989 0.35512 2489 ft 149 kts 260°
2026-04-25 20:00 51.71805 0.33855 2486 ft 151 kts 261°
2026-04-25 20:00 51.71679 0.32753 2488 ft 151 kts 260°
2026-04-25 20:00 51.71414 0.30515 2489 ft 153 kts 259°
2026-04-25 20:00 51.71208 0.28834 2489 ft 153 kts 259°
2026-04-25 20:01 51.70795 0.25484 2490 ft 152 kts 259°
2026-04-25 20:01 51.70456 0.23883 2488 ft 152 kts 239°
2026-04-25 20:01 51.69798 0.22557 2488 ft 152 kts 225°
2026-04-25 20:02 51.69035 0.21386 2505 ft 151 kts 221°
2026-04-25 20:02 51.68296 0.20265 2499 ft 144 kts 223°
2026-04-25 20:02 51.67597 0.19156 2490 ft 133 kts 225°
2026-04-25 20:02 51.66999 0.18139 2506 ft 121 kts 227°
2026-04-25 20:03 51.66438 0.17150 2509 ft 115 kts 228°
2026-04-25 20:03 51.65908 0.16215 2508 ft 111 kts 228°
2026-04-25 20:03 51.65390 0.15304 2509 ft 110 kts 228°
2026-04-25 20:03 51.64881 0.14413 2510 ft 110 kts 228°
2026-04-25 20:04 51.64372 0.13518 2504 ft 106 kts 228°
2026-04-25 20:04 51.63883 0.12663 2509 ft 102 kts 228°
2026-04-25 20:04 51.63406 0.11830 2512 ft 100 kts 228°
2026-04-25 20:04 51.62935 0.11015 2508 ft 99 kts 228°
2026-04-25 20:05 51.62498 0.10258 2500 ft 83 kts 229°
2026-04-25 20:05 51.62131 0.09643 2518 ft 72 kts 227°
2026-04-25 20:05 51.61778 0.09071 2516 ft 72 kts 228°
2026-04-25 20:05 51.61421 0.08493 2513 ft 73 kts 228°
2026-04-25 20:06 51.61070 0.07924 2514 ft 72 kts 227°
2026-04-25 20:06 51.60717 0.07353 2511 ft 71 kts 227°
2026-04-25 20:06 51.60367 0.06794 2510 ft 70 kts 227°
2026-04-25 20:06 51.60027 0.06258 2516 ft 69 kts 227°
2026-04-25 20:07 51.59679 0.05717 2514 ft 71 kts 227°
2026-04-25 20:07 51.59365 0.05106 2511 ft 71 kts 254°
2026-04-25 20:07 51.59271 0.04319 2513 ft 73 kts 268°
2026-04-25 20:07 51.59232 0.03505 2515 ft 74 kts 272°
2026-04-25 20:08 51.59210 0.02665 2513 ft 75 kts 272°
2026-04-25 20:08 51.59192 0.01819 2515 ft 77 kts 274°
2026-04-25 20:08 51.59185 0.00950 2511 ft 78 kts 275°
2026-04-25 20:08 51.59161 0.00078 2513 ft 78 kts 273°
2026-04-25 20:09 51.59140 -0.00788 2520 ft 78 kts 273°
2026-04-25 20:09 51.59132 -0.01652 2515 ft 77 kts 273°
2026-04-25 20:09 51.59134 -0.02499 2516 ft 75 kts 280°
2026-04-25 20:09 51.59471 -0.02953 2518 ft 65 kts 12°
2026-04-25 20:10 51.59744 -0.02476 2525 ft 60 kts 73°
2026-04-25 20:10 51.59810 -0.01799 2523 ft 63 kts 89°
2026-04-25 20:10 51.59833 -0.01086 2522 ft 65 kts 89°
2026-04-25 20:10 51.59850 -0.00357 2522 ft 66 kts 89°
2026-04-25 20:11 51.59865 0.00388 2509 ft 67 kts 89°
2026-04-25 20:11 51.59886 0.01143 2513 ft 69 kts 87°
2026-04-25 20:11 51.59902 0.01925 2510 ft 70 kts 89°
2026-04-25 20:11 51.59925 0.02707 2515 ft 70 kts 86°
2026-04-25 20:12 51.59947 0.03505 2511 ft 71 kts 87°
2026-04-25 20:12 51.59967 0.04295 2513 ft 71 kts 86°
2026-04-25 20:12 51.59996 0.05074 2513 ft 69 kts 86°
2026-04-25 20:12 51.60006 0.05323 2515 ft 69 kts 87°
2026-04-25 20:13 51.59428 0.05692 2516 ft 72 kts 232°
2026-04-25 20:13 51.59234 0.04955 2517 ft 73 kts 263°
2026-04-25 20:13 51.59161 0.04137 2512 ft 74 kts 269°
2026-04-25 20:13 51.59119 0.03292 2513 ft 77 kts 271°
2026-04-25 20:14 51.59098 0.02432 2512 ft 77 kts 273°
2026-04-25 20:14 51.59075 0.01559 2512 ft 79 kts 272°
2026-04-25 20:14 51.59076 0.00672 2513 ft 79 kts 277°
2026-04-25 20:14 51.59084 -0.00214 2521 ft 79 kts 276°
2026-04-25 20:15 51.59104 -0.01097 2518 ft 79 kts 276°
2026-04-25 20:15 51.59130 -0.01960 2512 ft 78 kts 276°
2026-04-25 20:15 51.59194 -0.02803 2514 ft 75 kts 302°
2026-04-25 20:15 51.59606 -0.03024 2519 ft 65 kts 33°
2026-04-25 20:16 51.59788 -0.02418 2528 ft 63 kts 84°
2026-04-25 20:16 51.59830 -0.01704 2523 ft 65 kts 88°
2026-04-25 20:16 51.59864 -0.00965 2522 ft 67 kts 87°
2026-04-25 20:16 51.59894 -0.00212 2523 ft 68 kts 87°
2026-04-25 20:17 51.59922 0.00552 2510 ft 69 kts 87°
2026-04-25 20:17 51.59955 0.01335 2514 ft 72 kts 85°
2026-04-25 20:17 51.59983 0.02139 2509 ft 71 kts 87°
2026-04-25 20:17 51.60017 0.02944 2514 ft 74 kts 85°
2026-04-25 20:18 51.60049 0.03755 2511 ft 72 kts 85°
2026-04-25 20:18 51.60084 0.04554 2510 ft 71 kts 86°
2026-04-25 20:18 51.60128 0.05335 2514 ft 70 kts 85°
2026-04-25 20:18 51.60172 0.06113 2513 ft 69 kts 84°
2026-04-25 20:19 51.59941 0.06724 2509 ft 70 kts 163°
2026-04-25 20:19 51.59549 0.06369 2517 ft 71 kts 254°
2026-04-25 20:19 51.59502 0.05581 2518 ft 73 kts 275°
2026-04-25 20:19 51.59516 0.04752 2512 ft 75 kts 278°
2026-04-25 20:20 51.59519 0.03893 2513 ft 78 kts 276°
2026-04-25 20:20 51.59523 0.03015 2516 ft 80 kts 277°
2026-04-25 20:20 51.59523 0.02104 2512 ft 81 kts 275°
2026-04-25 20:20 51.59527 0.01195 2514 ft 82 kts 275°
2026-04-25 20:21 51.59533 0.00272 2509 ft 82 kts 276°
2026-04-25 20:21 51.59537 -0.00635 2519 ft 81 kts 274°
2026-04-25 20:21 51.59547 -0.01531 2520 ft 80 kts 274°
2026-04-25 20:21 51.59561 -0.02415 2517 ft 78 kts 275°
2026-04-25 20:22 51.59575 -0.03286 2519 ft 77 kts 275°
2026-04-25 20:22 51.59586 -0.03565 2519 ft 77 kts 283°
2026-04-25 20:22 51.60173 -0.03736 2525 ft 63 kts 68°
2026-04-25 20:22 51.60267 -0.03045 2525 ft 65 kts 85°
2026-04-25 20:23 51.60316 -0.02309 2524 ft 67 kts 86°
2026-04-25 20:23 51.60366 -0.01551 2525 ft 69 kts 86°
2026-04-25 20:23 51.60418 -0.00779 2523 ft 70 kts 85°
2026-04-25 20:23 51.60468 -0.00003 2522 ft 70 kts 85°
2026-04-25 20:24 51.60512 0.00796 2510 ft 72 kts 85°
2026-04-25 20:24 51.60554 0.01589 2512 ft 71 kts 84°
2026-04-25 20:24 51.60598 0.02390 2509 ft 73 kts 85°
2026-04-25 20:24 51.60647 0.03189 2514 ft 72 kts 84°
2026-04-25 20:25 51.60700 0.03984 2511 ft 71 kts 84°
2026-04-25 20:25 51.60759 0.04778 2511 ft 71 kts 83°
2026-04-25 20:25 51.60526 0.05425 2526 ft 78 kts 156°
2026-04-25 20:25 51.59971 0.05167 2521 ft 96 kts 226°
2026-04-25 20:26 51.59748 0.04092 2518 ft 109 kts 266°
2026-04-25 20:26 51.59740 0.02826 2510 ft 116 kts 274°
2026-04-25 20:26 51.59783 0.01521 2507 ft 119 kts 275°
2026-04-25 20:26 51.59836 0.00175 2508 ft 122 kts 276°
2026-04-25 20:27 51.59973 -0.01165 2518 ft 121 kts 283°
2026-04-25 20:27 51.60168 -0.02481 2518 ft 121 kts 285°
2026-04-25 20:27 51.60377 -0.03791 2521 ft 121 kts 285°
2026-04-25 20:27 51.60584 -0.05097 2524 ft 120 kts 285°
2026-04-25 20:28 51.60785 -0.06402 2526 ft 120 kts 284°
2026-04-25 20:28 51.60981 -0.07711 2527 ft 120 kts 284°
2026-04-25 20:28 51.61172 -0.09019 2529 ft 120 kts 284°
2026-04-25 20:28 51.61353 -0.10336 2530 ft 121 kts 280°
2026-04-25 20:29 51.61418 -0.11225 2529 ft 121 kts 275°
2026-04-25 20:29 51.61476 -0.13028 2532 ft 121 kts 272°
2026-04-25 20:29 51.61494 -0.13923 2533 ft 121 kts 272°
2026-04-25 20:29 51.61519 -0.15272 2535 ft 121 kts 272°
2026-04-25 20:30 51.61545 -0.16623 2536 ft 121 kts 272°
2026-04-25 20:30 51.61509 -0.17981 2537 ft 122 kts 264°
2026-04-25 20:30 51.61401 -0.19325 2537 ft 121 kts 262°
2026-04-25 20:30 51.61288 -0.20671 2538 ft 121 kts 264°
2026-04-25 20:31 51.61212 -0.22020 2541 ft 121 kts 265°
2026-04-25 20:31 51.61150 -0.23373 2540 ft 121 kts 266°
2026-04-25 20:31 51.61094 -0.24727 2539 ft 121 kts 266°
2026-04-25 20:31 51.61039 -0.26078 2539 ft 121 kts 266°
2026-04-25 20:32 51.60985 -0.27429 2537 ft 121 kts 266°
2026-04-25 20:32 51.60930 -0.28782 2538 ft 121 kts 266°
2026-04-25 20:32 51.60875 -0.30135 2486 ft 121 kts 266°
2026-04-25 20:32 51.60819 -0.31488 2486 ft 121 kts 266°
2026-04-25 20:33 51.60764 -0.32841 2477 ft 120 kts 267°
2026-04-25 20:33 51.60724 -0.34139 2477 ft 111 kts 269°
2026-04-25 20:33 51.60692 -0.35339 2487 ft 104 kts 269°
2026-04-25 20:33 51.60670 -0.36099 2488 ft 101 kts 268°
2026-04-25 20:34 51.60619 -0.37589 2491 ft 99 kts 268°
2026-04-25 20:34 51.60586 -0.38684 2489 ft 98 kts 269°
2026-04-25 20:34 51.60554 -0.39776 2487 ft 97 kts 269°
2026-04-25 20:34 51.60521 -0.40875 2390 ft 98 kts 269°
2026-04-25 20:35 51.60493 -0.41956 2199 ft 96 kts 270°
2026-04-25 20:35 51.60462 -0.43004 2007 ft 93 kts 269°
2026-04-25 20:35 51.60428 -0.44032 1811 ft 92 kts 269°
2026-04-25 20:35 51.60378 -0.45053 1604 ft 92 kts 257°
2026-04-25 20:36 51.59961 -0.45715 1499 ft 82 kts 191°
2026-04-25 20:36 51.59423 -0.45497 1535 ft 86 kts 152°
2026-04-25 20:36 51.58838 -0.45059 1520 ft 98 kts 158°
2026-04-25 20:36 51.58177 -0.44694 1514 ft 102 kts 161°
2026-04-25 20:37 51.57492 -0.44324 1503 ft 105 kts 160°
2026-04-25 20:37 51.56803 -0.43950 1443 ft 104 kts 161°
2026-04-25 20:37 51.56127 -0.43585 1427 ft 101 kts 161°
2026-04-25 20:37 51.55508 -0.43070 1399 ft 100 kts 144°
2026-04-25 20:38 51.55103 -0.42193 1361 ft 99 kts 112°
2026-04-25 20:38 51.54914 -0.41140 1289 ft 98 kts 107°
2026-04-25 20:38 51.54727 -0.40104 1155 ft 95 kts 109°
2026-04-25 20:38 51.54537 -0.39100 1018 ft 93 kts 110°
2026-04-25 20:39 51.54336 -0.38135 1007 ft 90 kts 112°
2026-04-25 20:39 51.54101 -0.37184 996 ft 92 kts 113°
2026-04-25 20:39 51.53888 -0.36206 998 ft 94 kts 110°
2026-04-25 20:39 51.53761 -0.35541 996 ft 94 kts 108°
2026-04-25 20:40 51.53532 -0.34197 998 ft 93 kts 105°
2026-04-25 20:40 51.53409 -0.33182 998 ft 92 kts 102°
2026-04-25 20:40 51.53304 -0.32164 1000 ft 93 kts 102°
2026-04-25 20:40 51.53198 -0.31151 999 ft 91 kts 102°
2026-04-25 20:41 51.53069 -0.30156 996 ft 90 kts 115°
2026-04-25 20:41 51.52641 -0.29471 998 ft 88 kts 154°
2026-04-25 20:41 51.52057 -0.29197 1002 ft 88 kts 169°
2026-04-25 20:41 51.51443 -0.29030 999 ft 90 kts 171°
2026-04-25 20:42 51.50819 -0.28911 1000 ft 91 kts 175°
2026-04-25 20:42 51.50185 -0.28835 999 ft 91 kts 175°
2026-04-25 20:42 51.49546 -0.28760 1000 ft 92 kts 175°
2026-04-25 20:42 51.48917 -0.28573 998 ft 93 kts 153°
2026-04-25 20:43 51.48402 -0.27976 1025 ft 92 kts 144°
2026-04-25 20:43 51.47802 -0.27584 1026 ft 92 kts 156°
2026-04-25 20:43 51.47301 -0.26948 1026 ft 93 kts 132°
2026-04-25 20:43 51.47119 -0.25996 1023 ft 93 kts 85°
2026-04-25 20:44 51.47495 -0.25182 1022 ft 96 kts 27°
2026-04-25 20:44 51.48152 -0.25003 1003 ft 96 kts 11°
2026-04-25 20:44 51.48701 -0.24452 1003 ft 94 kts 50°
2026-04-25 20:44 51.48890 -0.23517 998 ft 89 kts 102°
2026-04-25 20:45 51.48530 -0.22760 1003 ft 89 kts 153°
2026-04-25 20:45 51.47918 -0.22585 989 ft 90 kts 175°
2026-04-25 20:45 51.47348 -0.22356 920 ft 81 kts 151°
2026-04-25 20:45 51.46907 -0.21798 767 ft 77 kts 133°
2026-04-25 20:46 51.46636 -0.21156 635 ft 59 kts 121°
2026-04-25 20:46 51.46451 -0.20540 394 ft 61 kts 116°
2026-04-25 20:46 51.46372 -0.19934 311 ft 48 kts 99°
2026-04-25 20:46 51.46383 -0.19607 294 ft 47 kts 92°
2026-04-25 20:47 51.46432 -0.19006 301 ft 60 kts 86°
2026-04-25 20:47 51.46618 -0.18393 234 ft 63 kts 59°
2026-04-25 20:47 51.46853 -0.18095 44 ft 30 kts 41°
2026-04-25 20:47 51.46970 -0.17978 32 ft 11 kts 32°
2026-04-25 20:48 51.46981 -0.17904 41 ft 9 kts 207°
2026-04-25 20:48 51.46962 -0.17913 22 ft 1 kts 328°
2026-04-25 20:48 51.46957 -0.17912 20 ft 0 kts 325°